Time,TemperatureF,DewpointF,PressureIn,WindDirection,WindDirectionDegrees,WindSpeedMPH,WindSpeedGustMPH,Humidity,HourlyPrecipIn,Conditions,Clouds,dailyrainin,SolarRadiationWatts/m^2,SoftwareType,DateUTC
2013-02-13 00:12:00,31.0,26.0,29.97,West,265,0.0,-999.0,80,-99.99,,,0.00,0,weatherlink.com 1.10,2013-02-13 05:12:00,
2013-02-13 00:27:00,30.9,25.0,29.97,West,265,0.0,-999.0,80,-99.99,,,0.00,0,weatherlink.com 1.10,2013-02-13 05:27:00,
2013-02-13 00:42:00,30.6,25.0,29.97,West,265,0.0,-999.0,81,-99.99,,,0.00,0,weatherlink.com 1.10,2013-02-13 05:42:00,
2013-02-13 00:57:00,30.1,25.0,29.97,West,265,0.0,-999.0,81,-99.99,,,0.00,0,weatherlink.com 1.10,2013-02-13 05:57:00,
2013-02-13 01:12:00,30.0,25.0,29.97,West,265,0.0,-999.0,82,-99.99,,,0.00,0,weatherlink.com 1.10,2013-02-13 06:12:00,
2013-02-13 01:27:00,30.0,25.0,29.98,West,265,0.0,-999.0,82,-99.99,,,0.00,0,weatherlink.com 1.10,2013-02-13 06:27:00,
2013-02-13 01:42:00,29.8,25.0,29.98,West,265,0.0,-999.0,83,-99.99,,,0.00,0,weatherlink.com 1.10,2013-02-13 06:42:00,
2013-02-13 01:57:00,29.5,25.0,29.98,West,265,0.0,-999.0,83,-99.99,,,0.00,0,weatherlink.com 1.10,2013-02-13 06:57:00,
2013-02-13 02:12:00,28.9,25.0,29.98,West,265,0.0,-999.0,84,-99.99,,,0.00,0,weatherlink.com 1.10,2013-02-13 07:12:00,
2013-02-13 02:27:00,28.7,25.0,29.98,West,265,0.0,-999.0,85,-99.99,,,0.00,0,weatherlink.com 1.10,2013-02-13 07:27:00,
2013-02-13 02:42:00,28.2,25.0,29.96,West,265,0.0,-999.0,87,-99.99,,,0.00,0,weatherlink.com 1.10,2013-02-13 07:42:00,
2013-02-13 02:57:00,27.8,25.0,29.95,West,265,0.0,-999.0,88,-99.99,,,0.00,0,weatherlink.com 1.10,2013-02-13 07:57:00,
2013-02-13 03:12:00,27.3,25.0,29.95,West,265,0.0,-999.0,89,-99.99,,,0.00,0,weatherlink.com 1.10,2013-02-13 08:12:00,
2013-02-13 03:27:00,27.0,25.0,29.94,West,265,0.0,-999.0,90,-99.99,,,0.00,0,weatherlink.com 1.10,2013-02-13 08:27:00,
2013-02-13 03:42:00,26.8,24.0,29.94,West,265,0.0,-999.0,90,-99.99,,,0.00,0,weatherlink.com 1.10,2013-02-13 08:42:00,
2013-02-13 03:57:00,26.5,24.0,29.93,West,265,0.0,-999.0,91,-99.99,,,0.00,0,weatherlink.com 1.10,2013-02-13 08:57:00,
2013-02-13 04:12:00,26.1,24.0,29.93,West,265,0.0,-999.0,91,-99.99,,,0.00,0,weatherlink.com 1.10,2013-02-13 09:12:00,
2013-02-13 04:28:00,26.1,24.0,29.93,West,265,0.0,-999.0,92,-99.99,,,0.00,0,weatherlink.com 1.10,2013-02-13 09:28:00,
2013-02-13 04:43:00,25.8,24.0,29.95,West,265,0.0,-999.0,92,-99.99,,,0.00,0,weatherlink.com 1.10,2013-02-13 09:43:00,
2013-02-13 04:57:00,25.7,24.0,29.94,West,265,0.0,-999.0,92,-99.99,,,0.00,0,weatherlink.com 1.10,2013-02-13 09:57:00,
2013-02-13 05:12:00,25.4,23.0,29.95,West,265,0.0,-999.0,92,-99.99,,,0.00,0,weatherlink.com 1.10,2013-02-13 10:12:00,
2013-02-13 05:27:00,25.2,24.0,29.94,West,265,0.0,-999.0,93,-99.99,,,0.00,0,weatherlink.com 1.10,2013-02-13 10:27:00,
2013-02-13 05:43:00,25.0,23.0,29.93,West,265,0.0,-999.0,93,-99.99,,,0.00,0,weatherlink.com 1.10,2013-02-13 10:43:00,
2013-02-13 05:58:00,24.8,23.0,29.93,West,265,0.0,-999.0,93,-99.99,,,0.00,0,weatherlink.com 1.10,2013-02-13 10:58:00,
2013-02-13 06:13:00,24.5,23.0,29.92,West,265,0.0,-999.0,93,-99.99,,,0.00,0,weatherlink.com 1.10,2013-02-13 11:13:00,
2013-02-13 06:28:00,24.4,23.0,29.92,West,265,0.0,-999.0,94,-99.99,,,0.00,0,weatherlink.com 1.10,2013-02-13 11:28:00,
2013-02-13 06:43:00,24.3,23.0,29.93,West,265,0.0,-999.0,94,-99.99,,,0.00,0,weatherlink.com 1.10,2013-02-13 11:43:00,
2013-02-13 06:58:00,24.3,23.0,29.92,West,265,0.0,-999.0,94,-99.99,,,0.00,5,weatherlink.com 1.10,2013-02-13 11:58:00,
2013-02-13 07:13:00,24.2,23.0,29.93,West,265,0.0,-999.0,94,-99.99,,,0.00,16,weatherlink.com 1.10,2013-02-13 12:13:00,
2013-02-13 07:28:00,24.4,23.0,29.93,West,265,0.0,-999.0,95,-99.99,,,0.00,32,weatherlink.com 1.10,2013-02-13 12:28:00,
2013-02-13 07:43:00,25.7,25.0,29.93,West,265,0.0,-999.0,96,-99.99,,,0.00,91,weatherlink.com 1.10,2013-02-13 12:43:00,
2013-02-13 07:58:00,27.8,27.0,29.93,West,265,0.0,-999.0,96,-99.99,,,0.00,146,weatherlink.com 1.10,2013-02-13 12:58:00,
2013-02-13 08:13:00,29.6,28.0,29.92,West,265,0.0,-999.0,93,-99.99,,,0.00,204,weatherlink.com 1.10,2013-02-13 13:13:00,
2013-02-13 08:28:00,31.4,29.0,29.91,West,265,0.0,-999.0,91,-99.99,,,0.00,227,weatherlink.com 1.10,2013-02-13 13:28:00,
2013-02-13 08:43:00,33.4,29.0,29.92,West,265,0.0,-999.0,84,-99.99,,,0.00,271,weatherlink.com 1.10,2013-02-13 13:43:00,
2013-02-13 08:59:00,35.5,29.0,29.91,West,265,0.0,-999.0,76,-99.99,,,0.00,322,weatherlink.com 1.10,2013-02-13 13:59:00,
2013-02-13 09:13:00,37.2,29.0,29.91,West,265,0.0,-999.0,72,-99.99,,,0.00,132,weatherlink.com 1.10,2013-02-13 14:13:00,
2013-02-13 09:29:00,37.6,28.0,29.91,ENE,70,2.0,-999.0,68,-99.99,,,0.00,229,weatherlink.com 1.10,2013-02-13 14:29:00,
2013-02-13 09:43:00,37.9,27.0,29.91,East,84,2.0,-999.0,65,-99.99,,,0.00,397,weatherlink.com 1.10,2013-02-13 14:43:00,
2013-02-13 09:58:00,38.5,26.0,29.91,East,84,2.0,-999.0,62,-99.99,,,0.00,287,weatherlink.com 1.10,2013-02-13 14:58:00,
2013-02-13 10:13:00,39.1,27.0,29.91,East,82,0.0,-999.0,61,-99.99,,,0.00,287,weatherlink.com 1.10,2013-02-13 15:13:00,
2013-02-13 10:28:00,39.4,26.0,29.92,East,101,0.0,-999.0,60,-99.99,,,0.00,274,weatherlink.com 1.10,2013-02-13 15:28:00,
2013-02-13 10:43:00,39.7,27.0,29.91,ESE,105,0.0,-999.0,60,-99.99,,,0.00,237,weatherlink.com 1.10,2013-02-13 15:43:00,
2013-02-13 10:58:00,40.1,27.0,29.91,ESE,113,1.0,-999.0,59,-99.99,,,0.00,262,weatherlink.com 1.10,2013-02-13 15:58:00,
2013-02-13 11:29:00,40.7,27.0,29.88,East,96,0.0,-999.0,58,-99.99,,,0.00,269,weatherlink.com 1.10,2013-02-13 16:29:00,
2013-02-13 11:44:00,40.7,27.0,29.88,East,80,0.0,-999.0,58,-99.99,,,0.00,253,weatherlink.com 1.10,2013-02-13 16:44:00,
2013-02-13 11:59:00,41.0,29.0,29.86,ENE,76,1.0,-999.0,62,-99.99,,,0.00,246,weatherlink.com 1.10,2013-02-13 16:59:00,
2013-02-13 12:14:00,41.2,28.0,29.86,East,97,0.0,-999.0,59,-99.99,,,0.00,202,weatherlink.com 1.10,2013-02-13 17:14:00,
2013-02-13 12:29:00,41.2,28.0,29.85,East,83,1.0,-999.0,59,-99.99,,,0.00,294,weatherlink.com 1.10,2013-02-13 17:29:00,
2013-02-13 12:44:00,41.9,27.0,29.83,SE,131,0.0,-999.0,57,-99.99,,,0.00,352,weatherlink.com 1.10,2013-02-13 17:44:00,
2013-02-13 12:59:00,41.8,27.0,29.82,SE,125,0.0,-999.0,56,-99.99,,,0.00,255,weatherlink.com 1.10,2013-02-13 17:59:00,
2013-02-13 13:14:00,42.4,28.0,29.82,ESE,115,2.0,-999.0,57,-99.99,,,0.00,292,weatherlink.com 1.10,2013-02-13 18:14:00,
2013-02-13 13:29:00,42.7,29.0,29.80,East,81,4.0,-999.0,58,-99.99,,,0.00,209,weatherlink.com 1.10,2013-02-13 18:29:00,
2013-02-13 13:44:00,41.4,30.0,29.78,East,97,1.0,-999.0,63,-99.99,,,0.00,281,weatherlink.com 1.10,2013-02-13 18:44:00,
2013-02-13 13:59:00,42.0,31.0,29.78,ESE,113,5.0,-999.0,64,-99.99,,,0.00,276,weatherlink.com 1.10,2013-02-13 18:59:00,
2013-02-13 14:14:00,42.1,30.0,29.79,East,86,5.0,-999.0,63,-99.99,,,0.00,297,weatherlink.com 1.10,2013-02-13 19:14:00,
2013-02-13 14:29:00,42.1,30.0,29.79,East,90,5.0,-999.0,62,-99.99,,,0.00,352,weatherlink.com 1.10,2013-02-13 19:29:00,
2013-02-13 14:44:00,42.7,30.0,29.79,SSW,211,5.0,-999.0,61,-99.99,,,0.00,461,weatherlink.com 1.10,2013-02-13 19:44:00,
2013-02-13 14:59:00,42.9,30.0,29.78,East,88,1.0,-999.0,61,-99.99,,,0.00,315,weatherlink.com 1.10,2013-02-13 19:59:00,
2013-02-13 15:14:00,42.2,30.0,29.77,East,80,3.0,-999.0,63,-99.99,,,0.00,276,weatherlink.com 1.10,2013-02-13 20:14:00,
2013-02-13 15:29:00,42.4,30.0,29.76,ESE,111,5.0,-999.0,62,-99.99,,,0.00,214,weatherlink.com 1.10,2013-02-13 20:29:00,
2013-02-13 15:44:00,41.6,30.0,29.75,ENE,78,3.0,-999.0,63,-99.99,,,0.00,44,weatherlink.com 1.10,2013-02-13 20:44:00,
2013-02-13 15:59:00,41.3,30.0,29.75,ENE,58,2.0,-999.0,65,-99.99,,,0.00,84,weatherlink.com 1.10,2013-02-13 20:59:00,
2013-02-13 16:15:00,40.8,31.0,29.73,ENE,72,0.0,-999.0,67,-99.99,,,0.00,58,weatherlink.com 1.10,2013-02-13 21:15:00,
2013-02-13 16:29:00,40.4,31.0,29.73,East,89,2.0,-999.0,69,-99.99,,,0.00,37,weatherlink.com 1.10,2013-02-13 21:29:00,
2013-02-13 16:44:00,39.8,31.0,29.72,ENE,66,4.0,-999.0,70,-99.99,,,0.00,14,weatherlink.com 1.10,2013-02-13 21:44:00,
2013-02-13 16:59:00,39.3,31.0,29.71,ENE,75,2.0,-999.0,71,-99.99,,,0.00,7,weatherlink.com 1.10,2013-02-13 21:59:00,
2013-02-13 17:15:00,39.0,30.0,29.71,NNE,30,0.0,-999.0,71,-99.99,,,0.00,0,weatherlink.com 1.10,2013-02-13 22:15:00,
2013-02-13 17:30:00,38.9,31.0,29.70,ESE,121,2.0,-999.0,72,-99.99,,,0.00,0,weatherlink.com 1.10,2013-02-13 22:30:00,
2013-02-13 17:44:00,38.8,30.0,29.71,East,88,1.0,-999.0,72,-99.99,,,0.00,0,weatherlink.com 1.10,2013-02-13 22:44:00,
2013-02-13 17:59:00,38.6,31.0,29.71,East,101,4.0,-999.0,73,-99.99,,,0.00,0,weatherlink.com 1.10,2013-02-13 22:59:00,
2013-02-13 18:15:00,38.4,31.0,29.71,ESE,106,4.0,-999.0,74,-99.99,,,0.00,0,weatherlink.com 1.10,2013-02-13 23:15:00,
2013-02-13 18:29:00,37.8,31.0,29.71,East,94,0.0,-999.0,77,-99.99,,,0.00,0,weatherlink.com 1.10,2013-02-13 23:29:00,
2013-02-13 18:44:00,37.6,32.0,29.70,NNE,19,3.0,-999.0,79,-99.99,,,0.00,0,weatherlink.com 1.10,2013-02-13 23:44:00,
2013-02-13 18:59:00,37.5,32.0,29.70,East,94,0.0,-999.0,80,-99.99,,,0.00,0,weatherlink.com 1.10,2013-02-13 23:59:00,
2013-02-13 19:15:00,37.3,32.0,29.71,East,85,0.0,-999.0,81,-99.99,,,0.00,0,weatherlink.com 1.10,2013-02-14 00:15:00,
2013-02-13 19:30:00,37.3,32.0,29.71,East,85,0.0,-999.0,82,-99.99,,,0.00,0,weatherlink.com 1.10,2013-02-14 00:30:00,
2013-02-13 19:45:00,36.2,32.0,29.72,East,85,1.0,-999.0,85,-99.99,,,0.01,0,weatherlink.com 1.10,2013-02-14 00:45:00,
2013-02-13 20:00:00,35.0,32.0,29.71,East,85,0.0,-999.0,89,-99.99,,,0.01,0,weatherlink.com 1.10,2013-02-14 01:00:00,
2013-02-13 20:15:00,34.0,32.0,29.71,East,85,0.0,-999.0,91,-99.99,,,0.01,0,weatherlink.com 1.10,2013-02-14 01:15:00,
2013-02-13 20:30:00,33.7,32.0,29.72,East,85,0.0,-999.0,93,-99.99,,,0.01,0,weatherlink.com 1.10,2013-02-14 01:30:00,
2013-02-13 20:45:00,33.3,32.0,29.71,East,85,0.0,-999.0,93,-99.99,,,0.01,0,weatherlink.com 1.10,2013-02-14 01:45:00,
2013-02-13 21:00:00,33.1,32.0,29.71,East,85,0.0,-999.0,95,-99.99,,,0.01,0,weatherlink.com 1.10,2013-02-14 02:00:00,
2013-02-13 21:15:00,33.0,32.0,29.71,East,85,0.0,-999.0,95,-99.99,,,0.01,0,weatherlink.com 1.10,2013-02-14 02:15:00,
2013-02-13 21:30:00,33.0,32.0,29.71,East,85,0.0,-999.0,95,-99.99,,,0.01,0,weatherlink.com 1.10,2013-02-14 02:30:00,
2013-02-13 21:45:00,32.9,32.0,29.70,East,85,0.0,-999.0,96,-99.99,,,0.02,0,weatherlink.com 1.10,2013-02-14 02:45:00,
2013-02-13 22:00:00,32.9,32.0,29.69,East,85,0.0,-999.0,96,-99.99,,,0.02,0,weatherlink.com 1.10,2013-02-14 03:00:00,
2013-02-13 22:15:00,32.9,32.0,29.70,East,85,0.0,-999.0,96,-99.99,,,0.02,0,weatherlink.com 1.10,2013-02-14 03:15:00,
2013-02-13 22:30:00,32.8,32.0,29.69,East,85,0.0,-999.0,97,-99.99,,,0.02,0,weatherlink.com 1.10,2013-02-14 03:30:00,
2013-02-13 22:45:00,32.8,32.0,29.69,East,85,0.0,-999.0,97,-99.99,,,0.02,0,weatherlink.com 1.10,2013-02-14 03:45:00,
2013-02-13 23:00:00,32.8,32.0,29.69,East,85,0.0,-999.0,97,-99.99,,,0.02,0,weatherlink.com 1.10,2013-02-14 04:00:00,
2013-02-13 23:15:00,32.8,32.0,29.70,NNE,30,0.0,-999.0,97,-99.99,,,0.02,0,weatherlink.com 1.10,2013-02-14 04:15:00,
2013-02-13 23:45:00,32.9,32.0,29.71,NNE,30,1.0,-999.0,97,-99.99,,,0.02,0,weatherlink.com 1.10,2013-02-14 04:45:00,